EGBB/BHX METAR and TAF weather

Enter ICAO airport designator
Station Type Date Time Source
EGBB METAR 2020/02/19 11:20 UTC NOAA

EGBB 191120Z 20006KT 170V230 9000 -RA BKN040 05/03 Q1019


Station Type Date Time Source
EGBB Decoded METAR 2020/02/19 11:20 UTC NOAA

Birmingham / Airport, United Kingdom (EGBB) 52-27N 001-44W 0M
Feb 19, 2020 - 06:20 AM EST / 2020.02.19 1120 UTC
Wind: from the SSW (200 degrees) at 7 MPH (6 KT) (direction variable):0
Visibility: 5 mile(s):0
Sky conditions: mostly cloudy
Weather: light rain
Temperature: 41 F (5 C)
Dew Point: 37 F (3 C)
Relative Humidity: 86%
Pressure (altimeter): 30.09 in. Hg (1019 hPa)
ob: EGBB 191120Z 20006KT 170V230 9000 -RA BKN040 05/03 Q1019
cycle: 11

Station Type Date Time Source
EGBB TAF 2020/02/19 12:09 UTC NOAA

TAF EGBB 191106Z 1912/2012 21009KT 9999 SCT020
TEMPO 1912/1918 6000 RA BKN008 PROB30
TEMPO 1912/1915 4000 RADZ
TEMPO 1920/2006 23015G25KT
TEMPO 2006/2012 23022G35KT 4000 RADZ BKN012 PROB30
TEMPO 2010/2012 26025G40KT 1200 +RA BKN008 PROB40 2011/2012 28010KT

Example: see airport list